createdAt,value
2023-03-01T00:26:03.256Z,-2.40
2023-03-01T01:57:23.633Z,-3.10
2023-03-01T02:07:20.341Z,-3.30
2023-03-01T02:09:49.325Z,-3.30
2023-03-01T02:19:50.222Z,-3.40
2023-03-01T02:32:14.776Z,-3.50
2023-03-01T03:05:13.796Z,-3.90
2023-03-01T03:07:42.833Z,-4.00
2023-03-01T03:10:13.901Z,-3.90
2023-03-01T05:53:35.496Z,-3.10
2023-03-01T06:57:40.628Z,-1.70
2023-03-01T07:34:42.240Z,0.20
2023-03-01T08:11:32.662Z,1.90
2023-03-01T08:41:15.260Z,3.80
2023-03-01T08:46:09.900Z,4.60
2023-03-01T08:51:14.343Z,4.30
2023-03-01T09:03:30.741Z,4.40
2023-03-01T09:06:01.212Z,4.50
2023-03-01T09:13:25.725Z,4.80
2023-03-01T09:15:52.786Z,4.70
2023-03-01T09:33:15.406Z,5.50
2023-03-01T09:35:47.087Z,5.70
2023-03-01T09:38:14.889Z,6.00
2023-03-01T09:40:47.298Z,6.00
2023-03-01T09:43:26.241Z,6.40
2023-03-01T09:45:56.044Z,6.60
2023-03-01T09:48:27.428Z,7.20
2023-03-01T09:50:54.499Z,7.80
2023-03-01T09:53:24.148Z,8.20
2023-03-01T09:56:20.055Z,8.30
2023-03-01T09:59:09.867Z,8.30
2023-03-01T10:01:44.954Z,9.00
2023-03-01T10:04:19.063Z,9.00
2023-03-01T10:06:55.424Z,9.20
2023-03-01T10:09:22.412Z,9.20
2023-03-01T10:11:54.060Z,10.20
2023-03-01T10:14:41.775Z,10.30
2023-03-01T10:17:21.137Z,10.60
2023-03-01T10:19:48.490Z,11.00
2023-03-01T10:22:29.055Z,11.10
2023-03-01T10:25:00.608Z,11.00
2023-03-01T10:27:38.355Z,10.90
2023-03-01T10:30:12.201Z,11.40
2023-03-01T10:32:39.093Z,11.80
2023-03-01T10:35:25.204Z,11.90
2023-03-01T10:38:11.096Z,12.40
2023-03-01T10:40:53.249Z,12.60
2023-03-01T10:43:20.745Z,12.90
2023-03-01T10:45:48.217Z,13.30
2023-03-01T10:48:24.414Z,13.60
2023-03-01T10:51:06.980Z,13.40
2023-03-01T10:53:37.414Z,12.90
2023-03-01T10:56:08.475Z,12.90
2023-03-01T10:58:38.288Z,13.50
2023-03-01T11:01:09.681Z,13.70
2023-03-01T11:03:38.965Z,13.90
2023-03-01T11:06:13.063Z,14.10
2023-03-01T11:08:44.133Z,14.60
2023-03-01T11:11:14.059Z,14.80
2023-03-01T11:13:55.815Z,15.00
2023-03-01T11:16:26.375Z,15.20
2023-03-01T11:19:19.399Z,15.90
2023-03-01T11:21:59.166Z,16.00
2023-03-01T11:24:32.490Z,16.00
2023-03-01T11:27:03.556Z,16.00
2023-03-01T11:29:48.375Z,15.70
2023-03-01T11:32:16.703Z,15.40
2023-03-01T11:34:54.414Z,15.40
2023-03-01T11:37:44.248Z,15.90
2023-03-01T11:40:21.452Z,16.10
2023-03-01T11:43:16.471Z,16.70
2023-03-01T11:45:51.708Z,16.80
2023-03-01T11:48:24.871Z,17.10
2023-03-01T11:50:52.524Z,17.10
2023-03-01T11:53:51.043Z,16.90
2023-03-01T11:56:24.024Z,16.60
2023-03-01T11:59:10.637Z,17.30
2023-03-01T12:01:48.741Z,17.40
2023-03-01T12:04:46.124Z,17.50
2023-03-01T12:07:40.255Z,17.90
2023-03-01T12:10:28.547Z,18.10
2023-03-01T12:13:14.656Z,18.50
2023-03-01T12:16:09.558Z,17.90
2023-03-01T12:19:03.543Z,18.40
2023-03-01T12:21:42.616Z,20.30
2023-03-01T12:24:28.477Z,20.30
2023-03-01T12:27:19.836Z,20.90
2023-03-01T12:30:11.641Z,21.00
2023-03-01T12:32:48.213Z,21.40
2023-03-01T12:35:30.019Z,21.40
2023-03-01T12:38:29.758Z,21.20
2023-03-01T12:41:27.844Z,21.50
2023-03-01T12:44:09.978Z,20.60
2023-03-01T12:46:45.528Z,20.70
2023-03-01T12:49:16.893Z,21.00
2023-03-01T12:51:52.706Z,20.40
2023-03-01T12:54:29.144Z,20.50
2023-03-01T12:56:58.052Z,20.10
2023-03-01T12:59:29.373Z,19.80
2023-03-01T13:02:29.813Z,20.70
2023-03-01T13:05:09.484Z,20.80
2023-03-01T13:07:40.498Z,20.60
2023-03-01T13:10:34.102Z,20.20
2023-03-01T13:13:12.152Z,20.10
2023-03-01T13:18:25.208Z,20.70
2023-03-01T13:20:58.140Z,21.30
2023-03-01T13:23:26.833Z,21.80
2023-03-01T13:26:15.734Z,21.60
2023-03-01T13:28:45.776Z,21.50
2023-03-01T13:31:19.884Z,21.70
2023-03-01T13:33:48.317Z,22.10
2023-03-01T13:36:31.798Z,22.50
2023-03-01T13:39:02.153Z,22.50
2023-03-01T13:41:44.319Z,22.30
2023-03-01T13:44:34.260Z,22.30
2023-03-01T13:47:06.660Z,21.60
2023-03-01T13:49:48.913Z,20.30
2023-03-01T13:52:32.873Z,19.20
2023-03-01T13:55:01.076Z,19.20
2023-03-01T13:57:34.494Z,18.90
2023-03-01T14:00:01.215Z,19.30
2023-03-01T14:02:28.108Z,18.70
2023-03-01T14:04:59.843Z,18.90
2023-03-01T14:07:30.451Z,18.70
2023-03-01T14:10:02.655Z,18.30
2023-03-01T14:12:53.476Z,19.00
2023-03-01T14:18:09.341Z,19.50
2023-03-01T14:20:42.792Z,19.90
2023-03-01T14:23:15.063Z,19.80
2023-03-01T14:25:52.127Z,19.10
2023-03-01T14:28:22.891Z,19.70
2023-03-01T14:30:52.631Z,20.20
2023-03-01T14:33:24.710Z,21.50
2023-03-01T14:35:55.759Z,21.70
2023-03-01T14:38:28.756Z,21.80
2023-03-01T14:41:00.138Z,21.70
2023-03-01T14:43:27.280Z,21.70
2023-03-01T14:45:56.305Z,21.20
2023-03-01T14:48:23.846Z,21.20
2023-03-01T14:50:51.707Z,21.40
2023-03-01T14:53:22.687Z,22.00
2023-03-01T14:55:54.031Z,22.10
2023-03-01T15:00:53.070Z,21.90
2023-03-01T15:03:33.781Z,21.40
2023-03-01T15:06:02.964Z,21.20
2023-03-01T15:08:33.975Z,20.50
2023-03-01T15:11:19.542Z,19.90
2023-03-01T15:13:47.428Z,19.60
2023-03-01T15:16:18.087Z,19.40
2023-03-01T15:18:49.079Z,19.30
2023-03-01T15:21:20.882Z,18.70
2023-03-01T15:23:54.049Z,18.90
2023-03-01T15:26:41.288Z,18.60
2023-03-01T15:29:19.232Z,18.10
2023-03-01T15:34:25.983Z,17.90
2023-03-01T15:36:55.553Z,17.70
2023-03-01T15:39:44.416Z,17.40
2023-03-01T15:42:12.445Z,17.30
2023-03-01T15:44:44.267Z,17.30
2023-03-01T15:47:28.582Z,17.30
2023-03-01T15:49:56.320Z,17.00
2023-03-01T15:54:58.854Z,16.20
2023-03-01T19:41:44.567Z,3.20
2023-03-01T21:03:18.885Z,2.00
